createdAt,value
2023-03-05T00:11:03.337Z,23.30
2023-03-05T00:26:08.266Z,25.33
2023-03-05T00:41:10.153Z,23.97
2023-03-05T00:56:12.473Z,23.37
2023-03-05T01:11:14.668Z,23.63
2023-03-05T01:26:16.821Z,24.07
2023-03-05T01:41:19.526Z,23.53
2023-03-05T01:56:22.215Z,26.33
2023-03-05T02:11:24.067Z,24.37
2023-03-05T02:26:26.391Z,25.50
2023-03-05T02:41:28.614Z,21.63
2023-03-05T02:56:30.632Z,20.53
2023-03-05T03:11:32.518Z,19.90
2023-03-05T03:26:34.449Z,18.90
2023-03-05T03:41:41.685Z,18.80
2023-03-05T03:56:43.797Z,15.30
2023-03-05T04:11:45.681Z,15.70
2023-03-05T04:26:47.885Z,13.83
2023-03-05T04:41:49.775Z,14.43
2023-03-05T04:56:51.872Z,13.00
2023-03-05T05:11:54.048Z,11.77
2023-03-05T05:26:56.449Z,10.80
2023-03-05T05:41:58.249Z,14.17
2023-03-05T05:57:00.226Z,12.70
2023-03-05T06:12:02.396Z,11.80
2023-03-05T06:27:07.035Z,10.80
2023-03-05T06:42:09.146Z,10.30
2023-03-05T06:57:11.306Z,10.87
2023-03-05T07:12:13.187Z,6.67
2023-03-05T07:27:15.367Z,6.57
2023-03-05T07:42:17.215Z,5.87
2023-03-05T07:57:19.163Z,5.00
2023-03-05T08:12:21.082Z,4.43
2023-03-05T14:04:52.604Z,1.10
2023-03-05T14:20:24.375Z,1.63
2023-03-05T14:35:28.701Z,1.20
2023-03-05T14:50:46.820Z,1.07
2023-03-05T15:05:52.444Z,1.50
2023-03-05T15:20:55.008Z,8.97
2023-03-05T15:35:57.326Z,2.83
2023-03-05T15:50:59.545Z,1.90
2023-03-05T16:06:02.457Z,1.23
2023-03-05T16:21:07.948Z,1.30
2023-03-05T16:36:27.716Z,1.87
2023-03-05T16:51:30.549Z,2.70
2023-03-05T17:06:35.767Z,3.20
2023-03-05T17:21:38.273Z,4.77
2023-03-05T17:36:41.927Z,4.67
2023-03-05T17:51:44.517Z,4.40
2023-03-05T18:06:50.233Z,4.53
2023-03-05T18:21:52.260Z,3.20
2023-03-05T18:36:55.618Z,24.77
2023-03-05T18:51:57.578Z,3.47
2023-03-05T19:07:22.543Z,2.20
2023-03-05T19:23:08.434Z,2.10
2023-03-05T19:38:13.048Z,2.30
2023-03-05T19:53:15.428Z,3.20
2023-03-05T20:08:17.826Z,6.73
2023-03-05T20:23:20.898Z,15.47
2023-03-05T20:38:29.808Z,6.13
2023-03-05T20:53:31.904Z,21.87
2023-03-05T21:08:37.134Z,23.67
2023-03-05T21:23:40.298Z,23.20
2023-03-05T21:38:42.250Z,18.87
2023-03-05T21:53:46.842Z,14.53
2023-03-05T22:08:49.408Z,9.70
2023-03-05T22:23:51.534Z,9.13
2023-03-05T22:38:53.602Z,8.30
2023-03-05T22:53:55.411Z,8.10
2023-03-05T23:08:57.802Z,6.97
2023-03-05T23:23:59.639Z,6.50
2023-03-05T23:39:01.520Z,6.00
2023-03-05T23:54:04.521Z,5.87
